Time;durP1;ratioP1;P1;durP2;ratioP2;P2;SDS_P1;SDS_P2;PMS_P1;PMS_P2;Temp;Humidity;BMP_temperature;BMP_pressure;BME280_temperature;BME280_humidity;BME280_pressure;Samples;Min_cycle;Max_cycle;Signal;HPM_P1;HPM_P2
2022/03/18 00:09:55;;;;;;;45.00;21.90;;;;;;;1.16;45.78;100533.64;432488;1270;108482;-40
2022/03/18 00:20:02;;;;;;;40.10;21.60;;;;;;;1.02;45.97;100539.33;432603;1271;98853;-41
2022/03/18 00:30:12;;;;;;;42.80;19.20;;;;;;;0.89;46.24;100543.76;432593;1270;112426;-41
2022/03/18 00:40:19;;;;;;;40.50;18.10;;;;;;;0.73;46.13;100541.58;432569;1271;107957;-43
2022/03/18 01:00:53;;;;;;;42.20;19.30;;;;;;;0.50;46.49;100525.88;432347;1271;112416;-40
2022/03/18 01:11:01;;;;;;;41.10;18.70;;;;;;;0.48;46.69;100522.91;432465;1271;108933;-42
2022/03/18 01:21:08;;;;;;;40.00;19.70;;;;;;;0.42;46.80;100522.87;432447;1271;98292;-42
2022/03/18 01:31:15;;;;;;;44.60;19.90;;;;;;;0.32;47.03;100516.35;432731;1270;112496;-41
2022/03/18 01:41:23;;;;;;;40.90;18.20;;;;;;;0.21;47.02;100509.05;432453;1270;108813;-41
2022/03/18 01:51:30;;;;;;;50.40;19.70;;;;;;;0.10;47.32;100508.89;432482;1270;99356;-41
2022/03/18 02:01:36;;;;;;;40.70;19.70;;;;;;;-0.01;47.78;100519.53;432441;1270;112468;-41
2022/03/18 02:11:45;;;;;;;37.60;17.90;;;;;;;-0.02;47.70;100535.23;432557;1269;108868;-41
2022/03/18 02:21:55;;;;;;;41.20;18.10;;;;;;;-0.12;47.84;100550.19;432420;1270;99271;-40
2022/03/18 02:42:11;;;;;;;35.20;18.40;;;;;;;-0.34;47.99;100554.56;432427;1271;111661;-43
2022/03/18 02:52:19;;;;;;;39.80;18.60;;;;;;;-0.45;48.36;100559.94;432432;1271;99348;-40
2022/03/18 03:02:27;;;;;;;39.00;18.20;;;;;;;-0.52;48.46;100564.42;432597;1271;112481;-42
2022/03/18 03:12:35;;;;;;;28.70;16.00;;;;;;;-0.58;48.54;100573.03;432635;1271;108941;-42
2022/03/18 03:22:42;;;;;;;41.80;19.40;;;;;;;-0.64;48.76;100583.85;432442;1271;98048;-42
2022/03/18 03:42:56;;;;;;;37.80;17.40;;;;;;;-0.80;49.01;100612.01;432611;1271;99258;-41
2022/03/18 03:53:03;;;;;;;33.50;16.80;;;;;;;-0.93;49.16;100622.63;432575;1271;111459;-41
2022/03/18 04:03:13;;;;;;;38.40;16.40;;;;;;;-1.04;49.54;100630.14;432292;1271;108879;-40
2022/03/18 04:13:20;;;;;;;39.20;18.20;;;;;;;-1.13;49.40;100626.48;432519;1271;99259;-40
2022/03/18 04:23:27;;;;;;;40.30;17.00;;;;;;;-1.18;49.74;100629.75;432438;1271;108816;-42
2022/03/18 04:33:34;;;;;;;36.10;18.40;;;;;;;-1.23;49.84;100633.86;432328;1270;99249;-41
2022/03/18 04:43:41;;;;;;;38.60;18.60;;;;;;;-1.31;50.16;100645.01;432476;1271;112347;-41
2022/03/18 04:53:49;;;;;;;32.80;17.30;;;;;;;-1.37;50.57;100647.81;432247;1271;108717;-41
2022/03/18 05:03:56;;;;;;;34.00;15.10;;;;;;;-1.37;50.39;100661.66;432572;1271;99290;-39
2022/03/18 05:14:02;;;;;;;38.50;17.00;;;;;;;-1.38;50.59;100670.00;432374;1272;108489;-42
2022/03/18 05:24:09;;;;;;;38.90;17.30;;;;;;;-1.35;50.59;100668.42;432460;1271;99951;-41
2022/03/18 05:34:17;;;;;;;46.00;17.70;;;;;;;-1.28;50.76;100680.75;432435;1272;112403;-41
2022/03/18 05:44:25;;;;;;;32.80;16.30;;;;;;;-1.25;50.70;100681.04;432500;1271;108734;-39
2022/03/18 05:54:32;;;;;;;39.60;15.90;;;;;;;-1.13;51.11;100690.15;432592;1272;99349;-41
2022/03/18 06:04:39;;;;;;;35.70;17.10;;;;;;;-0.97;51.02;100698.89;432449;1272;108685;-43
2022/03/18 06:14:46;;;;;;;27.70;15.20;;;;;;;-0.75;51.05;100707.90;431883;1272;99326;-42
2022/03/18 06:24:53;;;;;;;32.00;17.00;;;;;;;-0.58;50.87;100718.33;431973;1272;112511;-40
2022/03/18 06:35:01;;;;;;;34.00;17.30;;;;;;;-0.37;50.83;100731.44;432184;1272;108890;-40
2022/03/18 06:45:10;;;;;;;39.50;17.00;;;;;;;-0.14;50.93;100739.98;432437;1271;99233;-39
2022/03/18 06:55:16;;;;;;;33.80;17.90;;;;;;;0.15;50.52;100746.37;432488;1271;111398;-41
2022/03/18 07:05:22;;;;;;;43.10;20.00;;;;;;;0.36;50.19;100746.77;432339;1271;108826;-40
2022/03/18 07:15:28;;;;;;;30.70;15.60;;;;;;;0.55;49.94;100755.40;432674;1271;99359;-40
2022/03/18 07:25:35;;;;;;;31.10;15.60;;;;;;;0.95;49.76;100758.84;432481;1271;112429;-40
2022/03/18 07:35:42;;;;;;;26.80;14.00;;;;;;;1.10;48.77;100764.47;432447;1271;108383;-42
2022/03/18 07:45:50;;;;;;;26.70;12.50;;;;;;;1.26;48.54;100769.99;432457;1271;99254;-40
2022/03/18 07:55:57;;;;;;;20.90;12.20;;;;;;;1.69;48.38;100779.15;432493;1271;112445;-41
2022/03/18 08:06:04;;;;;;;37.10;16.60;;;;;;;2.46;47.31;100780.66;432415;1271;108974;-41
2022/03/18 08:16:14;;;;;;;23.40;12.70;;;;;;;2.93;45.82;100785.10;432286;1271;97994;-43
2022/03/18 08:26:21;;;;;;;15.80;10.20;;;;;;;3.74;45.09;100792.13;432606;1271;112554;-43
2022/03/18 08:36:29;;;;;;;22.80;12.50;;;;;;;4.27;43.90;100799.64;432344;1271;109088;-40
2022/03/18 08:46:36;;;;;;;20.50;11.00;;;;;;;4.33;43.61;100816.50;432437;1271;99309;-41
2022/03/18 08:56:44;;;;;;;19.00;10.40;;;;;;;4.15;43.19;100819.30;432514;1271;111654;-41
2022/03/18 09:06:51;;;;;;;16.50;10.10;;;;;;;3.75;42.68;100830.30;428341;1270;5582385;-41
2022/03/18 09:16:58;;;;;;;12.70;8.40;;;;;;;4.04;42.54;100842.80;432593;1271;112152;-42
2022/03/18 09:27:03;;;;;;;18.20;10.20;;;;;;;4.44;41.84;100854.38;432520;1271;108844;-41
2022/03/18 09:37:10;;;;;;;16.70;9.90;;;;;;;5.00;40.76;100866.90;432516;1269;99248;-40
2022/03/18 09:47:21;;;;;;;17.70;10.20;;;;;;;5.69;40.03;100866.73;432448;1270;111565;-44
2022/03/18 09:57:29;;;;;;;24.30;10.20;;;;;;;6.45;38.78;100865.30;432466;1271;108424;-43
2022/03/18 10:07:37;;;;;;;14.60;8.10;;;;;;;6.70;37.92;100876.06;432540;1271;98508;-42
2022/03/18 10:17:46;;;;;;;14.00;8.70;;;;;;;6.79;37.73;100869.67;432513;1271;112440;-40
2022/03/18 10:27:53;;;;;;;17.70;9.50;;;;;;;7.01;36.93;100870.52;432566;1271;108850;-41
2022/03/18 10:38:00;;;;;;;14.50;8.60;;;;;;;7.18;35.98;100874.95;432552;1271;99243;-41
2022/03/18 10:58:20;;;;;;;17.90;8.60;;;;;;;7.48;34.52;100874.45;432365;1271;108927;-42
2022/03/18 11:08:29;;;;;;;;;;;;;;;7.68;34.28;100873.19;432494;1271;99281;-41
2022/03/18 11:18:38;;;;;;;11.80;7.10;;;;;;;7.84;33.97;100871.95;432592;1270;112472;-41
2022/03/18 11:28:44;;;;;;;11.60;8.10;;;;;;;8.15;33.46;100875.79;432470;1271;109054;-41
2022/03/18 11:39:06;;;;;;;11.70;7.60;;;;;;;8.10;32.79;100877.19;432027;1270;98044;-41
2022/03/18 11:49:13;;;;;;;12.80;8.00;;;;;;;8.33;32.25;100879.62;432427;1270;112447;-40
2022/03/18 12:09:57;;;;;;;14.50;6.90;;;;;;;8.36;31.01;100877.14;432532;1271;98421;-41
2022/03/18 12:20:06;;;;;;;11.70;6.80;;;;;;;8.59;30.17;100869.52;432534;1271;112509;-42
2022/03/18 12:30:13;;;;;;;12.20;6.70;;;;;;;8.57;30.06;100867.80;432522;1271;108835;-43
2022/03/18 12:40:20;;;;;;;8.00;6.40;;;;;;;8.70;29.78;100871.41;432624;1271;98858;-41
2022/03/18 12:50:26;;;;;;;10.20;7.10;;;;;;;8.69;29.06;100870.91;432745;1271;112365;-41
2022/03/18 13:00:38;;;;;;;15.60;9.60;;;;;;;8.75;28.54;100874.96;432699;1271;107823;-43
2022/03/18 13:10:54;;;;;;;10.10;6.90;;;;;;;8.86;28.97;100870.90;432380;1271;99272;-41
2022/03/18 13:21:03;;;;;;;8.20;5.70;;;;;;;8.92;28.35;100870.80;432584;1271;112391;-43
2022/03/18 13:41:45;;;;;;;13.00;6.80;;;;;;;8.86;27.22;100872.63;432569;1270;99810;-42
2022/03/18 14:01:57;;;;;;;12.40;6.90;;;;;;;8.86;27.71;100875.27;432555;1271;108770;-41
2022/03/18 14:12:12;;;;;;;10.70;6.30;;;;;;;9.03;27.69;100874.92;432552;1271;98311;-41
2022/03/18 14:22:30;;;;;;;14.40;7.30;;;;;;;8.98;27.51;100880.88;432704;1271;112477;-43
2022/03/18 14:32:38;;;;;;;12.40;7.50;;;;;;;8.87;27.63;100883.27;432613;1271;108940;-41
2022/03/18 14:43:24;;;;;;;13.00;8.10;;;;;;;8.86;27.91;100874.98;432437;1271;99247;-42
2022/03/18 14:53:32;;;;;;;12.70;8.40;;;;;;;8.84;28.07;100874.64;432665;1271;111559;-42
2022/03/18 15:03:39;;;;;;;16.00;8.80;;;;;;;8.71;28.20;100869.38;432682;1271;108607;-41
2022/03/18 15:23:54;;;;;;;15.50;7.90;;;;;;;8.50;28.39;100863.51;432470;1270;112387;-40
2022/03/18 15:34:02;;;;;;;11.30;7.40;;;;;;;8.34;28.35;100860.65;432549;1271;108760;-41
2022/03/18 15:44:10;;;;;;;14.20;7.90;;;;;;;8.20;28.47;100865.06;432763;1271;99269;-41
2022/03/18 15:54:18;;;;;;;12.80;6.90;;;;;;;8.05;28.52;100878.15;432813;1271;112492;-41
2022/03/18 16:04:25;;;;;;;11.90;6.30;;;;;;;7.85;28.66;100879.77;432536;1271;108988;-40
2022/03/18 16:14:34;;;;;;;14.50;7.90;;;;;;;7.66;29.04;100886.98;432729;1271;98421;-40
2022/03/18 16:34:49;;;;;;;25.20;13.80;;;;;;;7.14;29.93;100902.00;432615;1271;108800;-40
2022/03/18 16:44:59;;;;;;;26.00;13.80;;;;;;;6.75;30.39;100910.61;432580;1271;99264;-41
2022/03/18 16:55:04;;;;;;;25.30;11.90;;;;;;;6.26;30.74;100915.98;432775;1271;112558;-40
2022/03/18 17:05:12;;;;;;;46.70;17.80;;;;;;;5.86;30.98;100931.16;432689;1271;109276;-40
2022/03/18 17:25:27;;;;;;;26.40;13.00;;;;;;;4.77;32.16;100947.55;432565;1271;112397;-41
2022/03/18 17:35:34;;;;;;;185.00;74.30;;;;;;;4.25;32.69;100954.70;432536;1271;108722;-41
2022/03/18 17:45:40;;;;;;;104.40;46.10;;;;;;;3.56;33.49;100962.17;432658;1271;98827;-42
2022/03/18 17:55:48;;;;;;;88.30;37.50;;;;;;;3.12;34.26;100972.08;432421;1271;112324;-41
2022/03/18 18:05:55;;;;;;;172.70;41.40;;;;;;;2.96;34.67;100983.34;432511;1271;109004;-40
2022/03/18 18:16:03;;;;;;;114.30;41.20;;;;;;;2.58;35.25;100991.39;432499;1271;99806;-42
2022/03/18 18:36:20;;;;;;;108.20;42.90;;;;;;;1.99;36.55;101007.14;432488;1271;108887;-41
2022/03/18 18:46:27;;;;;;;95.90;42.20;;;;;;;1.76;36.85;101016.48;432610;1270;99305;-41
2022/03/18 18:56:34;;;;;;;113.20;47.10;;;;;;;1.45;37.19;101015.33;432468;1271;112382;-42
2022/03/18 19:06:42;;;;;;;123.10;47.50;;;;;;;1.17;37.88;101015.98;432546;1271;108862;-41
2022/03/18 19:16:50;;;;;;;106.40;47.10;;;;;;;0.94;38.45;101027.73;432525;1271;98000;-42
2022/03/18 19:26:56;;;;;;;;;;;;;;;0.76;38.92;101034.78;432606;1271;112500;-41
2022/03/18 19:37:04;;;;;;;97.90;37.90;;;;;;;0.62;39.26;101044.22;432563;1271;108692;-42
2022/03/18 20:07:45;;;;;;;141.20;52.40;;;;;;;0.11;40.95;101052.98;432700;1271;109039;-43
2022/03/18 20:17:53;;;;;;;170.60;65.70;;;;;;;-0.37;41.51;101050.92;432444;1271;99255;-41
2022/03/18 20:28:00;;;;;;;180.20;66.00;;;;;;;-0.69;42.31;101055.98;432525;1271;108573;-41
2022/03/18 20:38:08;;;;;;;170.80;61.10;;;;;;;-0.88;42.83;101061.85;432567;1270;99286;-41
2022/03/18 20:48:15;;;;;;;187.00;71.10;;;;;;;-0.99;42.81;101052.00;432463;1270;111399;-43
2022/03/18 20:58:22;;;;;;;183.90;73.90;;;;;;;-1.10;43.34;101048.88;432586;1271;107026;-41
2022/03/18 21:08:29;;;;;;;188.30;73.00;;;;;;;-1.24;44.01;101046.29;428466;1271;5453824;-41
2022/03/18 21:18:38;;;;;;;175.10;72.60;;;;;;;-1.41;44.50;101058.29;432497;1271;109036;-40
2022/03/18 21:39:10;;;;;;;213.80;80.10;;;;;;;-1.66;45.32;101051.49;432521;1271;112604;-42
2022/03/18 21:49:17;;;;;;;225.90;84.40;;;;;;;-1.73;45.44;101044.48;432266;1271;108758;-41
2022/03/18 21:59:24;;;;;;;219.30;86.30;;;;;;;-1.87;45.95;101055.13;432547;1271;99269;-42
2022/03/18 22:09:31;;;;;;;205.70;78.10;;;;;;;-2.09;46.42;101061.84;432492;1270;108977;-40
2022/03/18 22:19:42;;;;;;;250.60;95.90;;;;;;;-2.28;46.78;101066.38;432438;1271;99155;-41
2022/03/18 22:29:49;;;;;;;253.30;95.60;;;;;;;-2.39;46.80;101062.34;432385;1271;112589;-42
2022/03/18 22:39:57;;;;;;;284.20;101.30;;;;;;;-2.47;47.19;101054.52;432510;1270;108868;-41
2022/03/18 23:00:19;;;;;;;252.50;95.30;;;;;;;-2.56;47.96;101053.27;432651;1271;108877;-42
2022/03/18 23:20:48;;;;;;;265.90;95.30;;;;;;;-2.89;48.71;101049.45;432511;1271;111392;-41
2022/03/18 23:30:58;;;;;;;259.70;92.20;;;;;;;-3.06;49.25;101050.39;432266;1271;108896;-40
2022/03/18 23:41:05;;;;;;;247.10;90.20;;;;;;;-3.24;49.63;101053.27;432627;1271;99268;-42
2022/03/18 23:51:12;;;;;;;247.20;93.50;;;;;;;-3.41;49.86;101056.21;432603;1271;108809;-40
